sensor_id;sensor_type;location;lat;lon;timestamp;pressure;altitude;pressure_sealevel;temperature;humidity
51229;BME280;37304;52.216;6.874;2023-04-19T00:00:54;102508.28;;;9.25;100.00
51229;BME280;37304;52.216;6.874;2023-04-19T00:05:56;102508.25;;;9.22;100.00
51229;BME280;37304;52.216;6.874;2023-04-19T00:11:00;102495.22;;;9.19;100.00
51229;BME280;37304;52.216;6.874;2023-04-19T00:16:01;102503.69;;;9.07;100.00
51229;BME280;37304;52.216;6.874;2023-04-19T00:21:01;102495.78;;;8.99;100.00
51229;BME280;37304;52.216;6.874;2023-04-19T00:26:02;102489.56;;;8.91;100.00
51229;BME280;37304;52.216;6.874;2023-04-19T00:31:03;102488.63;;;8.84;100.00
51229;BME280;37304;52.216;6.874;2023-04-19T00:36:06;102489.38;;;8.77;100.00
51229;BME280;37304;52.216;6.874;2023-04-19T00:41:10;102483.13;;;8.67;100.00
51229;BME280;37304;52.216;6.874;2023-04-19T00:46:10;102483.03;;;8.61;100.00
51229;BME280;37304;52.216;6.874;2023-04-19T00:51:11;102483.75;;;8.54;100.00
51229;BME280;37304;52.216;6.874;2023-04-19T00:56:12;102484.56;;;8.51;100.00
51229;BME280;37304;52.216;6.874;2023-04-19T01:01:13;102481.13;;;8.51;100.00
51229;BME280;37304;52.216;6.874;2023-04-19T01:06:16;102473.34;;;8.51;100.00
51229;BME280;37304;52.216;6.874;2023-04-19T01:11:16;102474.25;;;8.53;100.00
51229;BME280;37304;52.216;6.874;2023-04-19T01:16:17;102485.44;;;8.52;100.00
51229;BME280;37304;52.216;6.874;2023-04-19T01:21:17;102481.16;;;8.54;100.00
51229;BME280;37304;52.216;6.874;2023-04-19T01:26:18;102486.28;;;8.51;100.00
51229;BME280;37304;52.216;6.874;2023-04-19T01:31:18;102493.88;;;8.43;100.00
51229;BME280;37304;52.216;6.874;2023-04-19T01:36:18;102494.59;;;8.34;100.00
51229;BME280;37304;52.216;6.874;2023-04-19T01:41:19;102492.75;;;8.28;100.00
51229;BME280;37304;52.216;6.874;2023-04-19T01:46:21;102491.72;;;8.20;100.00
51229;BME280;37304;52.216;6.874;2023-04-19T01:51:39;102479.50;;;8.13;100.00
51229;BME280;37304;52.216;6.874;2023-04-19T01:56:40;102482.06;;;8.11;100.00
51229;BME280;37304;52.216;6.874;2023-04-19T02:01:40;102484.63;;;8.10;100.00
51229;BME280;37304;52.216;6.874;2023-04-19T02:06:41;102480.19;;;8.04;100.00
51229;BME280;37304;52.216;6.874;2023-04-19T02:11:41;102487.03;;;8.02;100.00
51229;BME280;37304;52.216;6.874;2023-04-19T02:16:44;102485.28;;;8.01;100.00
51229;BME280;37304;52.216;6.874;2023-04-19T02:21:48;102478.34;;;7.98;100.00
51229;BME280;37304;52.216;6.874;2023-04-19T02:26:49;102484.28;;;7.94;100.00
51229;BME280;37304;52.216;6.874;2023-04-19T02:31:50;102481.69;;;7.93;100.00
51229;BME280;37304;52.216;6.874;2023-04-19T02:36:51;102483.38;;;7.91;100.00
51229;BME280;37304;52.216;6.874;2023-04-19T02:41:52;102488.44;;;7.86;100.00
51229;BME280;37304;52.216;6.874;2023-04-19T02:46:52;102481.50;;;7.83;100.00
51229;BME280;37304;52.216;6.874;2023-04-19T02:51:53;102492.63;;;7.79;100.00
51229;BME280;37304;52.216;6.874;2023-04-19T02:56:53;102483.81;;;7.71;100.00
51229;BME280;37304;52.216;6.874;2023-04-19T03:01:54;102490.81;;;7.75;100.00
51229;BME280;37304;52.216;6.874;2023-04-19T03:06:54;102488.22;;;7.75;100.00
51229;BME280;37304;52.216;6.874;2023-04-19T03:11:55;102484.81;;;7.78;100.00
51229;BME280;37304;52.216;6.874;2023-04-19T03:16:55;102476.28;;;7.82;100.00
51229;BME280;37304;52.216;6.874;2023-04-19T03:21:56;102484.09;;;7.85;100.00
51229;BME280;37304;52.216;6.874;2023-04-19T03:26:56;102480.72;;;7.87;100.00
51229;BME280;37304;52.216;6.874;2023-04-19T03:31:57;102470.41;;;7.91;100.00
51229;BME280;37304;52.216;6.874;2023-04-19T03:36:57;102465.31;;;7.94;100.00
51229;BME280;37304;52.216;6.874;2023-04-19T03:41:57;102467.00;;;7.92;100.00
51229;BME280;37304;52.216;6.874;2023-04-19T03:46:58;102468.75;;;7.93;100.00
51229;BME280;37304;52.216;6.874;2023-04-19T03:52:01;102459.22;;;7.92;100.00
51229;BME280;37304;52.216;6.874;2023-04-19T03:57:04;102462.72;;;7.94;100.00
51229;BME280;37304;52.216;6.874;2023-04-19T04:02:05;102453.19;;;7.93;100.00
51229;BME280;37304;52.216;6.874;2023-04-19T04:07:06;102461.03;;;7.96;100.00
51229;BME280;37304;52.216;6.874;2023-04-19T04:12:06;102460.97;;;7.93;100.00
51229;BME280;37304;52.216;6.874;2023-04-19T04:17:07;102456.56;;;7.89;100.00
51229;BME280;37304;52.216;6.874;2023-04-19T04:22:07;102463.38;;;7.85;100.00
51229;BME280;37304;52.216;6.874;2023-04-19T04:27:08;102461.50;;;7.78;100.00
51229;BME280;37304;52.216;6.874;2023-04-19T04:32:09;102465.84;;;7.77;100.00
51229;BME280;37304;52.216;6.874;2023-04-19T04:37:10;102468.22;;;7.68;100.00
51229;BME280;37304;52.216;6.874;2023-04-19T04:42:10;102479.25;;;7.59;100.00
51229;BME280;37304;52.216;6.874;2023-04-19T04:47:12;102468.72;;;7.51;100.00
51229;BME280;37304;52.216;6.874;2023-04-19T04:52:15;102471.16;;;7.45;100.00
51229;BME280;37304;52.216;6.874;2023-04-19T04:57:22;102477.03;;;7.38;100.00
51229;BME280;37304;52.216;6.874;2023-04-19T05:02:25;102473.91;;;7.14;100.00
51229;BME280;37304;52.216;6.874;2023-04-19T05:07:26;102478.00;;;7.05;100.00
51229;BME280;37304;52.216;6.874;2023-04-19T05:12:26;102482.81;;;6.91;100.00
51229;BME280;37304;52.216;6.874;2023-04-19T05:17:29;102481.53;;;6.75;100.00
51229;BME280;37304;52.216;6.874;2023-04-19T05:22:29;102478.72;;;6.65;100.00
51229;BME280;37304;52.216;6.874;2023-04-19T05:27:30;102487.00;;;6.52;100.00
51229;BME280;37304;52.216;6.874;2023-04-19T05:32:33;102488.59;;;6.47;100.00
51229;BME280;37304;52.216;6.874;2023-04-19T05:37:34;102504.56;;;6.33;100.00
51229;BME280;37304;52.216;6.874;2023-04-19T05:42:37;102504.34;;;6.25;100.00
51229;BME280;37304;52.216;6.874;2023-04-19T05:47:37;102493.94;;;6.22;100.00
51229;BME280;37304;52.216;6.874;2023-04-19T05:52:38;102497.28;;;6.20;100.00
51229;BME280;37304;52.216;6.874;2023-04-19T05:57:39;102501.53;;;6.18;100.00
51229;BME280;37304;52.216;6.874;2023-04-19T06:02:39;102506.78;;;6.21;100.00
51229;BME280;37304;52.216;6.874;2023-04-19T06:07:39;102502.34;;;6.15;100.00
51229;BME280;37304;52.216;6.874;2023-04-19T06:12:40;102515.28;;;6.17;100.00
51229;BME280;37304;52.216;6.874;2023-04-19T06:17:40;102520.50;;;6.18;100.00
51229;BME280;37304;52.216;6.874;2023-04-19T06:22:43;102525.94;;;6.29;100.00
51229;BME280;37304;52.216;6.874;2023-04-19T06:27:44;102519.59;;;6.48;100.00
51229;BME280;37304;52.216;6.874;2023-04-19T06:32:44;102520.41;;;6.46;100.00
51229;BME280;37304;52.216;6.874;2023-04-19T06:37:45;102507.97;;;6.63;100.00
51229;BME280;37304;52.216;6.874;2023-04-19T06:42:48;102518.25;;;6.95;100.00
51229;BME280;37304;52.216;6.874;2023-04-19T06:47:48;102521.78;;;6.98;100.00
51229;BME280;37304;52.216;6.874;2023-04-19T06:52:49;102526.84;;;6.95;100.00
51229;BME280;37304;52.216;6.874;2023-04-19T06:57:51;102532.38;;;7.08;100.00
51229;BME280;37304;52.216;6.874;2023-04-19T07:02:54;102532.59;;;7.17;100.00
51229;BME280;37304;52.216;6.874;2023-04-19T07:07:55;102530.84;;;7.16;100.00
51229;BME280;37304;52.216;6.874;2023-04-19T07:12:58;102528.59;;;7.30;100.00
51229;BME280;37304;52.216;6.874;2023-04-19T07:17:58;102530.44;;;7.36;100.00
51229;BME280;37304;52.216;6.874;2023-04-19T07:23:19;102526.28;;;7.79;100.00
51229;BME280;37304;52.216;6.874;2023-04-19T07:28:20;102525.94;;;7.64;100.00
51229;BME280;37304;52.216;6.874;2023-04-19T07:33:23;102521.75;;;7.70;100.00
51229;BME280;37304;52.216;6.874;2023-04-19T07:38:24;102519.84;;;8.01;100.00
51229;BME280;37304;52.216;6.874;2023-04-19T07:43:24;102511.78;;;8.30;100.00
51229;BME280;37304;52.216;6.874;2023-04-19T07:48:26;102516.28;;;8.39;100.00
51229;BME280;37304;52.216;6.874;2023-04-19T07:53:26;102513.44;;;8.70;100.00
51229;BME280;37304;52.216;6.874;2023-04-19T07:58:26;102501.22;;;8.64;100.00
51229;BME280;37304;52.216;6.874;2023-04-19T08:03:27;102510.25;;;8.86;100.00
51229;BME280;37304;52.216;6.874;2023-04-19T08:08:27;102507.53;;;9.32;100.00
51229;BME280;37304;52.216;6.874;2023-04-19T08:13:30;102505.53;;;9.73;97.46
51229;BME280;37304;52.216;6.874;2023-04-19T08:18:33;102488.41;;;10.61;94.93
51229;BME280;37304;52.216;6.874;2023-04-19T08:23:35;102486.41;;;10.37;92.76
51229;BME280;37304;52.216;6.874;2023-04-19T08:28:38;102485.56;;;11.42;90.81
51229;BME280;37304;52.216;6.874;2023-04-19T08:34:08;102483.44;;;12.78;82.58
51229;BME280;37304;52.216;6.874;2023-04-19T08:39:08;102479.06;;;12.43;76.38
51229;BME280;37304;52.216;6.874;2023-04-19T08:44:13;102481.72;;;12.76;72.04
51229;BME280;37304;52.216;6.874;2023-04-19T08:49:22;102473.91;;;13.05;66.29
51229;BME280;37304;52.216;6.874;2023-04-19T08:54:29;102475.59;;;13.45;63.70
51229;BME280;37304;52.216;6.874;2023-04-19T08:59:53;102471.06;;;13.91;63.11
51229;BME280;37304;52.216;6.874;2023-04-19T09:05:15;102464.94;;;15.24;59.15
51229;BME280;37304;52.216;6.874;2023-04-19T09:16:09;102448.00;;;16.22;53.84
51229;BME280;37304;52.216;6.874;2023-04-19T09:21:51;102433.88;;;16.86;43.81
51229;BME280;37304;52.216;6.874;2023-04-19T09:27:24;102433.06;;;15.63;42.44
51229;BME280;37304;52.216;6.874;2023-04-19T09:44:16;102423.41;;;15.65;38.21
51229;BME280;37304;52.216;6.874;2023-04-19T09:49:24;102414.16;;;17.13;37.25
51229;BME280;37304;52.216;6.874;2023-04-19T09:54:55;102413.19;;;17.61;36.25
51229;BME280;37304;52.216;6.874;2023-04-19T10:00:06;102401.41;;;16.38;36.55
51229;BME280;37304;52.216;6.874;2023-04-19T10:05:08;102383.31;;;16.24;36.12
51229;BME280;37304;52.216;6.874;2023-04-19T10:10:09;102387.31;;;17.84;34.69
51229;BME280;37304;52.216;6.874;2023-04-19T10:15:19;102377.50;;;17.50;34.01
51229;BME280;37304;52.216;6.874;2023-04-19T10:20:57;102379.25;;;17.51;32.81
51229;BME280;37304;52.216;6.874;2023-04-19T10:26:10;102389.88;;;17.00;32.44
51229;BME280;37304;52.216;6.874;2023-04-19T10:31:11;102357.31;;;18.30;32.74
51229;BME280;37304;52.216;6.874;2023-04-19T10:36:16;102368.94;;;17.41;33.36
51229;BME280;37304;52.216;6.874;2023-04-19T10:41:18;102355.19;;;18.09;33.54
51229;BME280;37304;52.216;6.874;2023-04-19T11:01:43;102311.41;;;19.65;33.39
51229;BME280;37304;52.216;6.874;2023-04-19T11:06:55;102310.16;;;18.87;33.46
51229;BME280;37304;52.216;6.874;2023-04-19T11:12:00;102310.59;;;19.05;33.14
51229;BME280;37304;52.216;6.874;2023-04-19T11:17:36;102295.22;;;18.23;33.40
51229;BME280;37304;52.216;6.874;2023-04-19T11:22:49;102272.53;;;19.99;31.29
51229;BME280;37304;52.216;6.874;2023-04-19T11:28:10;102281.97;;;18.59;32.04
51229;BME280;37304;52.216;6.874;2023-04-19T11:33:18;102263.78;;;20.24;31.46
51229;BME280;37304;52.216;6.874;2023-04-19T11:38:27;102261.75;;;19.23;31.57
51229;BME280;37304;52.216;6.874;2023-04-19T11:43:35;102246.19;;;19.71;30.90
51229;BME280;37304;52.216;6.874;2023-04-19T11:48:48;102238.47;;;19.64;30.57
51229;BME280;37304;52.216;6.874;2023-04-19T11:53:52;102225.19;;;19.12;31.02
51229;BME280;37304;52.216;6.874;2023-04-19T11:59:10;102236.34;;;17.91;31.62
51229;BME280;37304;52.216;6.874;2023-04-19T12:04:11;102231.53;;;19.05;31.96
51229;BME280;37304;52.216;6.874;2023-04-19T12:09:15;102219.94;;;18.17;31.02
51229;BME280;37304;52.216;6.874;2023-04-19T12:14:40;102229.38;;;17.88;31.64
51229;BME280;37304;52.216;6.874;2023-04-19T12:19:51;102220.16;;;18.08;31.94
51229;BME280;37304;52.216;6.874;2023-04-19T12:24:52;102211.78;;;18.58;32.18
51229;BME280;37304;52.216;6.874;2023-04-19T12:29:53;102211.19;;;19.10;31.84
51229;BME280;37304;52.216;6.874;2023-04-19T12:34:53;102197.63;;;18.62;33.54
51229;BME280;37304;52.216;6.874;2023-04-19T12:39:54;102189.34;;;18.75;33.30
51229;BME280;37304;52.216;6.874;2023-04-19T12:45:03;102194.69;;;18.10;34.89
51229;BME280;37304;52.216;6.874;2023-04-19T12:50:11;102205.28;;;19.02;34.41
51229;BME280;37304;52.216;6.874;2023-04-19T12:55:13;102192.72;;;18.18;35.07
51229;BME280;37304;52.216;6.874;2023-04-19T13:00:14;102176.56;;;18.31;34.96
51229;BME280;37304;52.216;6.874;2023-04-19T13:05:14;102174.28;;;17.84;35.77
51229;BME280;37304;52.216;6.874;2023-04-19T13:10:18;102162.53;;;17.64;35.96
51229;BME280;37304;52.216;6.874;2023-04-19T13:15:22;102163.44;;;17.96;35.64
51229;BME280;37304;52.216;6.874;2023-04-19T13:20:26;102161.63;;;18.00;35.77
51229;BME280;37304;52.216;6.874;2023-04-19T13:25:30;102138.56;;;18.10;35.21
51229;BME280;37304;52.216;6.874;2023-04-19T13:30:31;102133.13;;;18.16;34.07
51229;BME280;37304;52.216;6.874;2023-04-19T13:35:37;102116.63;;;18.71;33.74
51229;BME280;37304;52.216;6.874;2023-04-19T13:40:37;102118.06;;;18.21;34.16
51229;BME280;37304;52.216;6.874;2023-04-19T13:45:39;102123.03;;;17.67;34.68
51229;BME280;37304;52.216;6.874;2023-04-19T13:50:55;102119.47;;;18.34;34.35
51229;BME280;37304;52.216;6.874;2023-04-19T13:56:00;102103.34;;;18.15;35.15
51229;BME280;37304;52.216;6.874;2023-04-19T14:01:00;102092.94;;;18.71;35.43
51229;BME280;37304;52.216;6.874;2023-04-19T14:06:02;102101.91;;;18.35;36.04
51229;BME280;37304;52.216;6.874;2023-04-19T14:11:03;102088.38;;;18.76;35.78
51229;BME280;37304;52.216;6.874;2023-04-19T14:16:04;102089.03;;;18.56;35.50
51229;BME280;37304;52.216;6.874;2023-04-19T14:21:05;102085.66;;;17.54;36.32
51229;BME280;37304;52.216;6.874;2023-04-19T14:26:07;102071.09;;;17.75;36.27
51229;BME280;37304;52.216;6.874;2023-04-19T14:31:11;102059.84;;;17.01;37.56
51229;BME280;37304;52.216;6.874;2023-04-19T14:36:12;102059.22;;;16.08;38.18
51229;BME280;37304;52.216;6.874;2023-04-19T14:41:12;102039.97;;;16.51;38.60
51229;BME280;37304;52.216;6.874;2023-04-19T14:46:14;102048.72;;;16.50;38.85
51229;BME280;37304;52.216;6.874;2023-04-19T14:51:14;102054.03;;;15.06;39.00
51229;BME280;37304;52.216;6.874;2023-04-19T14:56:15;102043.69;;;15.51;39.09
51229;BME280;37304;52.216;6.874;2023-04-19T15:01:18;102042.34;;;15.76;38.64
51229;BME280;37304;52.216;6.874;2023-04-19T15:06:20;102028.91;;;15.47;37.93
51229;BME280;37304;52.216;6.874;2023-04-19T15:11:21;102019.94;;;15.10;37.72
51229;BME280;37304;52.216;6.874;2023-04-19T15:16:21;102017.28;;;15.13;38.36
51229;BME280;37304;52.216;6.874;2023-04-19T15:21:28;102020.66;;;14.61;38.30
51229;BME280;37304;52.216;6.874;2023-04-19T15:26:28;102020.41;;;14.15;38.36
51229;BME280;37304;52.216;6.874;2023-04-19T15:31:30;102009.94;;;14.17;39.14
51229;BME280;37304;52.216;6.874;2023-04-19T15:36:30;102019.56;;;14.13;39.53
51229;BME280;37304;52.216;6.874;2023-04-19T15:41:31;102011.91;;;13.99;39.98
51229;BME280;37304;52.216;6.874;2023-04-19T15:46:31;102001.50;;;13.94;39.82
51229;BME280;37304;52.216;6.874;2023-04-19T15:51:32;102000.81;;;13.80;39.53
51229;BME280;37304;52.216;6.874;2023-04-19T15:56:32;102008.75;;;13.71;40.31
51229;BME280;37304;52.216;6.874;2023-04-19T16:01:36;102014.94;;;13.62;40.81
51229;BME280;37304;52.216;6.874;2023-04-19T16:06:36;102007.94;;;13.64;41.22
51229;BME280;37304;52.216;6.874;2023-04-19T16:11:38;102016.13;;;13.23;41.49
51229;BME280;37304;52.216;6.874;2023-04-19T16:16:38;102006.59;;;13.21;41.34
51229;BME280;37304;52.216;6.874;2023-04-19T16:21:39;102009.19;;;13.21;41.28
51229;BME280;37304;52.216;6.874;2023-04-19T16:26:39;102005.09;;;12.90;39.85
51229;BME280;37304;52.216;6.874;2023-04-19T16:31:39;102000.94;;;12.67;38.56
51229;BME280;37304;52.216;6.874;2023-04-19T16:36:40;102000.09;;;12.61;39.09
51229;BME280;37304;52.216;6.874;2023-04-19T16:41:43;102007.94;;;12.55;38.53
51229;BME280;37304;52.216;6.874;2023-04-19T16:46:44;102001.03;;;12.46;38.16
51229;BME280;37304;52.216;6.874;2023-04-19T16:51:44;102001.06;;;12.43;37.50
51229;BME280;37304;52.216;6.874;2023-04-19T16:56:45;101989.88;;;12.27;36.38
51229;BME280;37304;52.216;6.874;2023-04-19T17:01:45;101998.56;;;12.22;36.37
51229;BME280;37304;52.216;6.874;2023-04-19T17:06:49;102015.97;;;12.14;35.67
51229;BME280;37304;52.216;6.874;2023-04-19T17:11:50;102001.25;;;12.04;35.79
51229;BME280;37304;52.216;6.874;2023-04-19T17:16:51;102000.38;;;11.95;36.58
51229;BME280;37304;52.216;6.874;2023-04-19T17:21:51;102001.25;;;11.90;36.87
51229;BME280;37304;52.216;6.874;2023-04-19T17:26:52;102006.50;;;11.80;37.63
51229;BME280;37304;52.216;6.874;2023-04-19T17:31:52;102007.44;;;11.69;37.76
51229;BME280;37304;52.216;6.874;2023-04-19T17:36:53;102003.09;;;11.58;38.41
51229;BME280;37304;52.216;6.874;2023-04-19T17:41:54;102015.25;;;11.47;38.84
51229;BME280;37304;52.216;6.874;2023-04-19T17:46:55;102014.44;;;11.37;39.02
51229;BME280;37304;52.216;6.874;2023-04-19T17:51:55;102021.38;;;11.30;39.63
51229;BME280;37304;52.216;6.874;2023-04-19T17:56:56;102030.03;;;11.17;39.91
51229;BME280;37304;52.216;6.874;2023-04-19T18:01:58;102026.56;;;11.07;39.71
51229;BME280;37304;52.216;6.874;2023-04-19T18:06:59;102018.78;;;10.96;40.40
51229;BME280;37304;52.216;6.874;2023-04-19T18:11:59;102016.13;;;10.84;40.68
51229;BME280;37304;52.216;6.874;2023-04-19T18:17:03;102033.47;;;10.78;41.03
51229;BME280;37304;52.216;6.874;2023-04-19T18:22:05;102029.97;;;10.58;41.75
51229;BME280;37304;52.216;6.874;2023-04-19T18:27:05;102032.53;;;10.47;42.14
51229;BME280;37304;52.216;6.874;2023-04-19T18:32:09;102034.19;;;10.29;42.62
51229;BME280;37304;52.216;6.874;2023-04-19T18:37:18;102048.00;;;10.20;43.21
51229;BME280;37304;52.216;6.874;2023-04-19T18:42:36;102047.94;;;10.08;43.20
51229;BME280;37304;52.216;6.874;2023-04-19T18:47:45;102050.47;;;9.96;44.20
51229;BME280;37304;52.216;6.874;2023-04-19T18:52:48;102066.00;;;9.83;44.42
51229;BME280;37304;52.216;6.874;2023-04-19T18:57:49;102067.66;;;9.72;44.98
51229;BME280;37304;52.216;6.874;2023-04-19T19:02:55;102074.44;;;9.54;45.23
51229;BME280;37304;52.216;6.874;2023-04-19T19:07:56;102081.28;;;9.43;44.77
51229;BME280;37304;52.216;6.874;2023-04-19T19:12:57;102084.69;;;9.34;44.88
51229;BME280;37304;52.216;6.874;2023-04-19T19:17:57;102086.28;;;9.21;45.35
51229;BME280;37304;52.216;6.874;2023-04-19T19:22:57;102087.06;;;9.12;44.91
51229;BME280;37304;52.216;6.874;2023-04-19T19:27:58;102088.75;;;9.06;44.98
51229;BME280;37304;52.216;6.874;2023-04-19T19:32:59;102087.72;;;8.94;45.49
51229;BME280;37304;52.216;6.874;2023-04-19T19:38:00;102090.25;;;8.83;45.57
51229;BME280;37304;52.216;6.874;2023-04-19T19:43:01;102088.44;;;8.76;45.89
51229;BME280;37304;52.216;6.874;2023-04-19T19:48:05;102099.56;;;8.67;45.73
51229;BME280;37304;52.216;6.874;2023-04-19T19:53:06;102099.44;;;8.58;46.57
51229;BME280;37304;52.216;6.874;2023-04-19T19:58:08;102091.56;;;8.50;46.53
51229;BME280;37304;52.216;6.874;2023-04-19T20:03:08;102095.78;;;8.43;46.33
51229;BME280;37304;52.216;6.874;2023-04-19T20:08:11;102097.47;;;8.40;46.41
51229;BME280;37304;52.216;6.874;2023-04-19T20:13:12;102097.38;;;8.32;46.71
51229;BME280;37304;52.216;6.874;2023-04-19T20:18:13;102099.88;;;8.26;45.89
51229;BME280;37304;52.216;6.874;2023-04-19T20:23:14;102095.47;;;8.19;46.14
51229;BME280;37304;52.216;6.874;2023-04-19T20:28:15;102100.59;;;8.15;46.44
51229;BME280;37304;52.216;6.874;2023-04-19T20:33:16;102097.97;;;8.12;45.46
51229;BME280;37304;52.216;6.874;2023-04-19T20:38:17;102094.41;;;8.04;45.76
51229;BME280;37304;52.216;6.874;2023-04-19T20:43:30;102094.34;;;7.99;46.06
51229;BME280;37304;52.216;6.874;2023-04-19T20:48:36;102093.44;;;7.96;45.74
51229;BME280;37304;52.216;6.874;2023-04-19T20:53:41;102095.94;;;7.90;45.82
51229;BME280;37304;52.216;6.874;2023-04-19T20:58:42;102094.94;;;7.83;45.93
51229;BME280;37304;52.216;6.874;2023-04-19T21:03:48;102099.25;;;7.81;45.89
51229;BME280;37304;52.216;6.874;2023-04-19T21:08:54;102105.16;;;7.73;45.66
51229;BME280;37304;52.216;6.874;2023-04-19T21:13:58;102104.19;;;7.65;46.08
51229;BME280;37304;52.216;6.874;2023-04-19T21:18:59;102099.00;;;7.65;45.42
51229;BME280;37304;52.216;6.874;2023-04-19T21:24:02;102094.53;;;7.56;45.86
51229;BME280;37304;52.216;6.874;2023-04-19T21:34:24;102084.91;;;7.46;46.25
51229;BME280;37304;52.216;6.874;2023-04-19T21:39:24;102097.69;;;7.37;46.79
51229;BME280;37304;52.216;6.874;2023-04-19T21:44:25;102088.13;;;7.31;47.75
51229;BME280;37304;52.216;6.874;2023-04-19T21:49:25;102092.25;;;7.21;48.01
51229;BME280;37304;52.216;6.874;2023-04-19T21:54:26;102083.66;;;7.22;48.19
51229;BME280;37304;52.216;6.874;2023-04-19T21:59:28;102087.03;;;7.18;48.23
51229;BME280;37304;52.216;6.874;2023-04-19T22:04:31;102078.22;;;7.07;49.40
51229;BME280;37304;52.216;6.874;2023-04-19T22:09:32;102065.97;;;6.96;49.51
51229;BME280;37304;52.216;6.874;2023-04-19T22:14:36;102062.28;;;6.83;50.71
51229;BME280;37304;52.216;6.874;2023-04-19T22:19:36;102061.34;;;6.78;51.24
51229;BME280;37304;52.216;6.874;2023-04-19T22:24:38;102065.50;;;6.72;51.42
51229;BME280;37304;52.216;6.874;2023-04-19T22:29:39;102056.00;;;6.69;52.55
51229;BME280;37304;52.216;6.874;2023-04-19T22:34:39;102051.53;;;6.62;52.72
51229;BME280;37304;52.216;6.874;2023-04-19T22:39:42;102043.72;;;6.57;53.34
51229;BME280;37304;52.216;6.874;2023-04-19T22:44:43;102035.00;;;6.52;54.24
51229;BME280;37304;52.216;6.874;2023-04-19T22:49:44;102022.75;;;6.41;55.33
51229;BME280;37304;52.216;6.874;2023-04-19T22:54:44;102016.75;;;6.43;55.96
51229;BME280;37304;52.216;6.874;2023-04-19T22:59:44;102010.56;;;6.34;57.13
51229;BME280;37304;52.216;6.874;2023-04-19T23:04:48;102005.25;;;6.26;57.98
51229;BME280;37304;52.216;6.874;2023-04-19T23:09:50;101997.31;;;6.19;59.68
51229;BME280;37304;52.216;6.874;2023-04-19T23:14:50;101988.69;;;6.17;60.84
51229;BME280;37304;52.216;6.874;2023-04-19T23:19:51;101979.00;;;6.05;62.08
51229;BME280;37304;52.216;6.874;2023-04-19T23:24:51;101974.53;;;5.99;62.53
51229;BME280;37304;52.216;6.874;2023-04-19T23:29:52;101974.34;;;5.90;64.56
51229;BME280;37304;52.216;6.874;2023-04-19T23:34:52;101970.69;;;5.80;66.11
51229;BME280;37304;52.216;6.874;2023-04-19T23:39:53;101963.66;;;5.73;68.14
51229;BME280;37304;52.216;6.874;2023-04-19T23:44:53;101948.03;;;5.65;69.37
51229;BME280;37304;52.216;6.874;2023-04-19T23:49:54;101946.44;;;5.70;70.53
51229;BME280;37304;52.216;6.874;2023-04-19T23:54:55;101936.97;;;5.71;72.02
51229;BME280;37304;52.216;6.874;2023-04-19T23:59:55;101930.81;;;5.64;72.93
